Terminal Aerodrome Forecast
Issued by NWS

Home | Current Version | Previous Version | Text Only | Print | Product List | Glossary On
Versions: 1 2 3 4 5 6 7 8 9 10 11 12 13 14
717
FTUS43 KAPX 211734
TAFAPN
TAF
KAPN 211734Z 2118/2218 25007KT P6SM BKN012
     FM212000 28006KT P6SM SCT015
     FM220100 VRB03KT 4SM BR SCT150
     FM220300 00000KT 1 1/2SM BR BKN100
     FM221100 21004KT 4SM BR SCT060
     FM221300 21004KT P6SM SCT150=

USA.gov is the U.S. government's official web portal to all federal, state and local government web resources and services.